createdAt,value
2017-11-19T00:01:43.130Z,7.00
2017-11-19T00:04:12.493Z,7.00
2017-11-19T00:06:48.817Z,7.00
2017-11-19T00:09:26.614Z,7.00
2017-11-19T00:11:56.344Z,7.00
2017-11-19T00:14:35.057Z,7.00
2017-11-19T00:17:17.292Z,7.00
2017-11-19T00:19:47.460Z,7.00
2017-11-19T00:22:19.313Z,7.00
2017-11-19T00:24:49.072Z,7.00
2017-11-19T00:27:18.330Z,7.00
2017-11-19T00:29:47.592Z,7.10
2017-11-19T00:32:17.066Z,7.10
2017-11-19T00:34:46.935Z,7.00
2017-11-19T00:37:20.561Z,6.70
2017-11-19T00:39:50.009Z,6.60
2017-11-19T00:42:21.499Z,6.40
2017-11-19T00:44:50.701Z,6.40
2017-11-19T00:47:20.792Z,6.50
2017-11-19T00:49:50.674Z,6.30
2017-11-19T00:52:29.221Z,6.20
2017-11-19T00:54:59.983Z,6.20
2017-11-19T00:57:29.347Z,6.20
2017-11-19T00:59:59.405Z,6.20
2017-11-19T01:02:28.819Z,6.20
2017-11-19T01:04:58.643Z,6.20
2017-11-19T01:07:33.796Z,6.20
2017-11-19T01:10:05.818Z,6.10
2017-11-19T01:12:36.166Z,6.10
2017-11-19T01:15:15.853Z,6.10
2017-11-19T01:17:48.574Z,6.10
2017-11-19T01:20:18.109Z,6.10
2017-11-19T01:22:47.517Z,6.10
2017-11-19T01:25:20.361Z,6.10
2017-11-19T01:27:49.909Z,6.00
2017-11-19T01:30:19.367Z,5.90
2017-11-19T01:32:49.505Z,6.00
2017-11-19T01:35:19.010Z,6.00
2017-11-19T01:37:49.456Z,5.90
2017-11-19T01:40:18.946Z,5.90
2017-11-19T01:42:48.527Z,6.00
2017-11-19T01:45:18.839Z,6.00
2017-11-19T01:47:47.873Z,5.90
2017-11-19T01:50:22.758Z,5.90
2017-11-19T01:52:59.085Z,5.80
2017-11-19T01:55:29.331Z,5.90
2017-11-19T01:57:59.651Z,5.80
2017-11-19T02:00:37.179Z,5.80
2017-11-19T02:03:11.735Z,5.80
2017-11-19T02:05:41.487Z,5.80
2017-11-19T02:08:13.543Z,5.80
2017-11-19T02:10:44.421Z,5.70
2017-11-19T02:13:18.498Z,5.70
2017-11-19T02:15:52.611Z,5.80
2017-11-19T02:18:23.226Z,5.80
2017-11-19T02:20:52.836Z,5.80
2017-11-19T02:23:22.360Z,5.90
2017-11-19T02:25:56.642Z,5.90
2017-11-19T02:28:25.812Z,5.90
2017-11-19T02:31:00.087Z,6.00
2017-11-19T02:33:29.458Z,5.90
2017-11-19T02:36:00.220Z,5.90
2017-11-19T02:38:31.549Z,6.00
2017-11-19T02:41:01.094Z,6.00
2017-11-19T02:43:33.165Z,6.00
2017-11-19T02:46:13.863Z,6.00
2017-11-19T02:48:52.092Z,6.00
2017-11-19T02:51:22.593Z,6.10
2017-11-19T02:53:53.219Z,6.10
2017-11-19T02:56:25.853Z,6.10
2017-11-19T02:59:19.570Z,6.00
2017-11-19T03:02:07.567Z,6.00
2017-11-19T03:04:53.821Z,6.00
2017-11-19T03:07:23.402Z,5.90
2017-11-19T03:09:53.278Z,5.80
2017-11-19T03:12:22.912Z,5.80
2017-11-19T03:14:52.709Z,5.80
2017-11-19T03:17:27.595Z,5.80
2017-11-19T03:20:09.311Z,5.80
2017-11-19T03:22:42.525Z,5.80
2017-11-19T03:25:11.895Z,5.80
2017-11-19T03:27:41.110Z,5.80
2017-11-19T03:30:10.225Z,5.80
2017-11-19T03:32:41.034Z,5.80
2017-11-19T03:35:10.439Z,5.80
2017-11-19T03:37:41.021Z,5.70
2017-11-19T03:40:15.258Z,5.50
2017-11-19T03:42:51.391Z,5.50
2017-11-19T03:45:20.744Z,5.40
2017-11-19T03:47:49.929Z,5.40
2017-11-19T03:50:19.225Z,5.40
2017-11-19T03:52:48.902Z,5.30
2017-11-19T03:55:19.533Z,5.30
2017-11-19T03:57:52.310Z,5.30
2017-11-19T04:00:32.286Z,5.20
2017-11-19T04:03:03.790Z,5.20
2017-11-19T04:05:32.931Z,5.20
2017-11-19T04:08:02.878Z,5.10
2017-11-19T04:10:32.583Z,5.10
2017-11-19T04:13:01.736Z,5.10
2017-11-19T04:15:30.779Z,5.20
2017-11-19T04:18:00.042Z,5.10
2017-11-19T04:20:41.741Z,5.20
2017-11-19T04:23:15.036Z,5.20
2017-11-19T04:25:44.321Z,5.20
2017-11-19T04:28:13.940Z,5.20
2017-11-19T04:30:43.731Z,5.20
2017-11-19T04:33:13.822Z,5.20
2017-11-19T04:35:42.912Z,5.10
2017-11-19T04:38:12.234Z,5.20
2017-11-19T04:40:45.274Z,5.20
2017-11-19T04:43:15.110Z,5.20
2017-11-19T04:45:44.069Z,5.20
2017-11-19T04:48:13.267Z,5.20
2017-11-19T04:50:42.854Z,5.20
2017-11-19T04:53:16.411Z,5.20
2017-11-19T04:55:50.112Z,5.20
2017-11-19T04:58:20.187Z,5.20
2017-11-19T05:00:50.205Z,5.20
2017-11-19T05:03:20.030Z,5.20
2017-11-19T05:05:49.375Z,5.20
2017-11-19T05:08:18.435Z,5.20
2017-11-19T05:10:48.663Z,5.20
2017-11-19T05:13:19.611Z,5.10
2017-11-19T05:16:06.764Z,5.00
2017-11-19T05:18:48.385Z,5.00
2017-11-19T05:21:17.813Z,5.00
2017-11-19T05:23:47.477Z,4.90
2017-11-19T05:26:16.706Z,4.90
2017-11-19T05:28:46.111Z,4.90
2017-11-19T05:31:15.683Z,5.00
2017-11-19T05:33:44.875Z,5.00
2017-11-19T05:36:14.506Z,4.90
2017-11-19T05:38:44.889Z,4.90
2017-11-19T05:41:14.111Z,4.90
2017-11-19T05:43:43.413Z,4.80
2017-11-19T05:46:13.334Z,4.80
2017-11-19T05:48:43.263Z,4.80
2017-11-19T05:51:13.604Z,4.80
2017-11-19T05:53:42.571Z,4.80
2017-11-19T05:56:12.264Z,4.80
2017-11-19T05:58:41.698Z,4.80
2017-11-19T06:01:11.117Z,4.90
2017-11-19T06:03:40.258Z,4.90
2017-11-19T06:06:09.615Z,5.00
2017-11-19T06:08:39.591Z,5.00
2017-11-19T06:11:09.287Z,5.10
2017-11-19T06:13:38.593Z,5.10
2017-11-19T06:16:07.689Z,5.10
2017-11-19T06:18:36.922Z,5.10
2017-11-19T06:21:07.090Z,5.10
2017-11-19T06:23:36.775Z,5.10
2017-11-19T06:26:05.942Z,5.10
2017-11-19T06:28:35.828Z,5.10
2017-11-19T06:31:05.327Z,5.10
2017-11-19T06:33:34.589Z,5.10
2017-11-19T06:36:03.803Z,5.10
2017-11-19T06:38:32.825Z,5.10
2017-11-19T06:41:02.000Z,5.10
2017-11-19T06:43:31.482Z,5.20
2017-11-19T06:46:00.672Z,5.20
2017-11-19T06:48:30.140Z,5.30
2017-11-19T06:50:59.283Z,5.30
2017-11-19T06:53:28.597Z,5.30
2017-11-19T06:55:57.848Z,5.30
2017-11-19T06:58:28.332Z,5.30
2017-11-19T07:00:57.943Z,5.30
2017-11-19T07:03:27.301Z,5.40
2017-11-19T07:05:57.282Z,5.30
2017-11-19T07:08:26.616Z,5.30
2017-11-19T07:10:56.636Z,5.30
2017-11-19T07:13:26.304Z,5.30
2017-11-19T07:15:55.326Z,5.30
2017-11-19T07:18:25.303Z,5.40
2017-11-19T07:20:54.361Z,5.40
2017-11-19T07:23:23.714Z,5.50
2017-11-19T07:25:53.827Z,5.50
2017-11-19T07:28:23.080Z,5.40
2017-11-19T07:30:54.335Z,5.50
2017-11-19T07:33:24.766Z,5.50
2017-11-19T07:35:54.521Z,5.50
2017-11-19T07:38:23.830Z,5.60
2017-11-19T07:40:53.159Z,5.50
2017-11-19T07:43:22.631Z,5.50
2017-11-19T07:45:56.342Z,5.50
2017-11-19T07:48:26.485Z,5.50
2017-11-19T07:50:55.710Z,5.50
2017-11-19T07:53:25.179Z,5.50
2017-11-19T07:55:55.992Z,5.50
2017-11-19T07:58:26.338Z,5.50
2017-11-19T08:00:56.133Z,5.50
2017-11-19T08:03:26.126Z,5.50
2017-11-19T08:08:39.451Z,5.70
2017-11-19T08:11:09.254Z,5.70
2017-11-19T08:13:38.731Z,5.60
2017-11-19T08:16:08.846Z,5.50
2017-11-19T08:18:43.310Z,5.40
2017-11-19T08:21:12.597Z,5.40
2017-11-19T08:23:42.091Z,5.40
2017-11-19T08:26:11.415Z,5.60
2017-11-19T08:28:40.858Z,5.60
2017-11-19T08:31:10.527Z,5.80
2017-11-19T08:33:45.394Z,5.90
2017-11-19T08:36:16.248Z,6.00
2017-11-19T08:38:52.357Z,6.30
2017-11-19T08:41:21.749Z,6.20
2017-11-19T08:43:51.521Z,6.10
2017-11-19T08:46:21.781Z,5.70
2017-11-19T08:48:51.313Z,5.70
2017-11-19T08:51:20.559Z,5.70
2017-11-19T08:53:49.787Z,5.60
2017-11-19T08:56:18.882Z,5.50
2017-11-19T08:58:48.719Z,5.50
2017-11-19T09:01:17.712Z,5.50
2017-11-19T09:03:47.452Z,5.60
2017-11-19T09:06:16.634Z,5.60
2017-11-19T09:08:46.061Z,5.70
2017-11-19T09:11:15.126Z,5.70
2017-11-19T09:13:44.610Z,5.70
2017-11-19T09:16:14.701Z,5.90
2017-11-19T09:18:44.346Z,5.90
2017-11-19T09:21:42.720Z,5.90
2017-11-19T09:26:49.122Z,6.10
2017-11-19T09:29:19.361Z,6.30
2017-11-19T09:31:48.885Z,6.30
2017-11-19T09:34:18.572Z,6.30
2017-11-19T09:36:47.859Z,6.40
2017-11-19T09:39:17.749Z,6.50
2017-11-19T09:41:47.422Z,6.50
2017-11-19T09:44:16.724Z,6.60
2017-11-19T09:46:46.095Z,6.70
2017-11-19T09:49:16.128Z,6.80
2017-11-19T09:51:46.202Z,6.80
2017-11-19T09:54:15.593Z,6.80
2017-11-19T09:56:44.804Z,6.90
2017-11-19T09:59:14.055Z,7.00
2017-11-19T10:01:44.137Z,7.10
2017-11-19T10:04:14.779Z,7.20
2017-11-19T10:06:45.080Z,7.30
2017-11-19T10:09:14.345Z,7.30
2017-11-19T10:11:43.686Z,7.40
2017-11-19T10:14:12.947Z,7.60
2017-11-19T10:16:42.809Z,7.80
2017-11-19T10:19:13.040Z,8.20
2017-11-19T10:21:44.480Z,8.10
2017-11-19T10:24:15.013Z,7.90
2017-11-19T10:26:45.265Z,7.90
2017-11-19T10:29:14.609Z,7.80
2017-11-19T10:31:44.651Z,7.90
2017-11-19T10:34:15.613Z,8.10
2017-11-19T10:36:45.367Z,8.10
2017-11-19T10:39:14.742Z,8.30
2017-11-19T10:41:44.286Z,8.40
2017-11-19T10:44:14.026Z,8.50
2017-11-19T10:46:44.095Z,8.40
2017-11-19T10:49:13.553Z,8.50
2017-11-19T10:51:42.954Z,8.30
2017-11-19T10:54:13.838Z,8.10
2017-11-19T10:56:45.679Z,8.00
2017-11-19T10:59:15.454Z,7.90
2017-11-19T11:01:45.717Z,8.00
2017-11-19T11:04:15.134Z,8.00
2017-11-19T11:06:44.667Z,8.10
2017-11-19T11:09:13.990Z,8.20
2017-11-19T11:11:44.203Z,8.30
2017-11-19T11:14:14.226Z,8.30
2017-11-19T11:16:43.667Z,8.20
2017-11-19T11:19:13.245Z,8.30
2017-11-19T11:21:43.465Z,8.40
2017-11-19T11:24:14.256Z,8.40
2017-11-19T11:26:43.701Z,8.40
2017-11-19T11:29:13.688Z,8.50
2017-11-19T11:31:42.819Z,8.50
2017-11-19T11:34:12.927Z,8.60
2017-11-19T11:36:43.156Z,8.80
2017-11-19T11:39:13.351Z,8.60
2017-11-19T11:41:42.742Z,8.60
2017-11-19T11:44:12.937Z,9.00
2017-11-19T11:46:42.250Z,8.90
2017-11-19T11:49:11.855Z,9.00
2017-11-19T11:51:40.971Z,8.90
2017-11-19T11:54:10.446Z,8.90
2017-11-19T11:56:40.045Z,9.10
2017-11-19T11:59:09.483Z,9.30
2017-11-19T12:01:38.831Z,9.50
2017-11-19T12:04:09.984Z,9.90
2017-11-19T12:06:39.988Z,9.90
2017-11-19T12:09:10.577Z,10.00
2017-11-19T12:11:42.698Z,10.00
2017-11-19T12:14:12.283Z,9.90
2017-11-19T12:16:42.865Z,9.80
2017-11-19T12:19:14.468Z,9.70
2017-11-19T12:21:44.245Z,9.80
2017-11-19T12:24:13.436Z,9.70
2017-11-19T12:26:43.160Z,9.60
2017-11-19T12:29:13.947Z,9.70
2017-11-19T12:31:43.463Z,9.70
2017-11-19T12:34:12.816Z,10.00
2017-11-19T12:36:42.892Z,9.70
2017-11-19T12:39:12.295Z,9.70
2017-11-19T12:41:41.602Z,9.50
2017-11-19T12:44:11.311Z,9.60
2017-11-19T12:46:41.126Z,9.60
2017-11-19T12:49:10.664Z,9.60
2017-11-19T12:51:40.642Z,9.30
2017-11-19T12:54:10.118Z,9.30
2017-11-19T12:56:40.631Z,9.10
2017-11-19T12:59:10.977Z,10.00
2017-11-19T13:01:41.126Z,10.00
2017-11-19T13:04:10.844Z,10.50
2017-11-19T13:06:40.216Z,9.90
2017-11-19T13:09:09.409Z,9.60
2017-11-19T13:11:38.546Z,9.40
2017-11-19T13:14:07.922Z,9.10
2017-11-19T13:16:37.167Z,8.80
2017-11-19T13:19:07.053Z,8.60
2017-11-19T13:21:36.372Z,8.40
2017-11-19T13:24:05.753Z,8.30
2017-11-19T13:26:35.046Z,8.20
2017-11-19T13:29:04.213Z,8.40
2017-11-19T13:31:33.881Z,8.70
2017-11-19T13:34:03.252Z,9.10
2017-11-19T13:36:33.040Z,9.90
2017-11-19T13:39:03.087Z,9.50
2017-11-19T13:41:32.513Z,8.90
2017-11-19T13:44:01.674Z,9.00
2017-11-19T13:46:31.015Z,9.40
2017-11-19T13:49:01.206Z,9.10
2017-11-19T13:51:31.009Z,9.40
2017-11-19T13:54:00.752Z,9.50
2017-11-19T13:56:30.076Z,10.20
2017-11-19T13:59:05.936Z,10.90
2017-11-19T14:01:44.719Z,10.70
2017-11-19T14:04:14.885Z,10.60
2017-11-19T14:06:45.074Z,11.70
2017-11-19T14:09:15.122Z,10.90
2017-11-19T14:11:45.475Z,11.00
2017-11-19T14:14:15.123Z,11.00
2017-11-19T14:16:45.269Z,10.70
2017-11-19T14:19:16.663Z,9.50
2017-11-19T14:21:46.261Z,9.50
2017-11-19T14:24:16.852Z,9.20
2017-11-19T14:26:46.257Z,8.60
2017-11-19T14:29:16.610Z,8.00
2017-11-19T14:31:47.360Z,7.60
2017-11-19T14:34:16.766Z,7.60
2017-11-19T14:36:46.155Z,7.40
2017-11-19T14:39:15.887Z,7.40
2017-11-19T14:41:45.417Z,7.30
2017-11-19T14:44:15.041Z,7.30
2017-11-19T14:46:44.519Z,7.20
2017-11-19T14:49:13.802Z,7.00
2017-11-19T14:51:43.346Z,7.00
2017-11-19T14:54:15.659Z,7.10
2017-11-19T14:56:45.136Z,7.10
2017-11-19T14:59:15.445Z,7.00
2017-11-19T15:01:44.883Z,7.00
2017-11-19T15:04:14.707Z,6.90
2017-11-19T15:07:28.867Z,6.80
2017-11-19T15:10:15.461Z,6.80
2017-11-19T15:12:47.533Z,6.80
2017-11-19T15:15:18.782Z,6.90
2017-11-19T15:17:49.548Z,6.80
2017-11-19T15:20:20.369Z,6.80
2017-11-19T15:22:49.551Z,6.90
2017-11-19T15:25:18.802Z,6.90
2017-11-19T15:27:53.308Z,7.00
2017-11-19T15:30:23.717Z,7.00
2017-11-19T15:32:53.236Z,7.00
2017-11-19T15:35:33.141Z,7.10
2017-11-19T15:38:02.760Z,7.10
2017-11-19T15:40:33.412Z,7.00
2017-11-19T15:43:07.838Z,7.10
2017-11-19T15:45:37.608Z,7.10
2017-11-19T15:48:08.322Z,7.20
2017-11-19T15:50:39.450Z,7.30
2017-11-19T15:53:11.556Z,7.30
2017-11-19T15:55:42.086Z,7.30
2017-11-19T15:58:16.299Z,7.40
2017-11-19T16:00:46.916Z,7.40
2017-11-19T16:03:23.132Z,7.40
2017-11-19T16:05:53.243Z,7.40
2017-11-19T16:08:22.601Z,7.30
2017-11-19T16:10:54.875Z,7.30
2017-11-19T16:13:26.405Z,7.30
2017-11-19T16:15:56.200Z,7.30
2017-11-19T16:18:31.999Z,7.30
2017-11-19T16:21:06.195Z,7.30
2017-11-19T16:23:47.000Z,7.40
2017-11-19T16:26:20.935Z,7.30
2017-11-19T16:28:50.404Z,7.30
2017-11-19T16:31:20.484Z,7.20
2017-11-19T16:33:49.944Z,7.20
2017-11-19T16:36:21.469Z,7.10
2017-11-19T16:38:55.471Z,7.10
2017-11-19T16:41:24.772Z,7.00
2017-11-19T16:43:53.967Z,7.00
2017-11-19T16:46:24.494Z,7.00
2017-11-19T16:48:53.810Z,7.00
2017-11-19T16:51:26.736Z,7.10
2017-11-19T16:53:55.941Z,7.10
2017-11-19T16:56:25.349Z,7.20
2017-11-19T16:58:55.468Z,7.10
2017-11-19T17:01:38.620Z,7.10
2017-11-19T17:04:25.253Z,7.10
2017-11-19T17:07:06.292Z,7.00
2017-11-19T17:09:39.141Z,6.90
2017-11-19T17:12:08.456Z,6.90
2017-11-19T17:14:37.862Z,7.00
2017-11-19T17:17:09.567Z,6.90
2017-11-19T17:19:43.334Z,6.70
2017-11-19T17:22:14.127Z,6.70
2017-11-19T17:24:46.539Z,6.70
2017-11-19T17:27:22.656Z,6.70
2017-11-19T17:29:53.166Z,6.70
2017-11-19T17:32:33.147Z,6.60
2017-11-19T17:35:15.896Z,6.70
2017-11-19T17:37:46.922Z,6.70
2017-11-19T17:40:55.983Z,6.80
2017-11-19T17:43:46.978Z,6.80
2017-11-19T17:46:18.286Z,6.90
2017-11-19T17:48:47.804Z,6.80
2017-11-19T17:51:19.131Z,6.90
2017-11-19T17:53:51.654Z,6.90
2017-11-19T17:56:23.025Z,6.80
2017-11-19T17:58:53.399Z,6.80
2017-11-19T18:01:24.552Z,6.70
2017-11-19T18:03:54.213Z,6.70
2017-11-19T18:06:37.851Z,6.70
2017-11-19T18:09:09.744Z,6.70
2017-11-19T18:11:40.593Z,6.80
2017-11-19T18:14:12.001Z,6.90
2017-11-19T18:16:45.450Z,6.90
2017-11-19T18:19:19.765Z,6.90
2017-11-19T18:21:55.203Z,6.80
2017-11-19T18:24:29.679Z,6.80
2017-11-19T18:26:59.571Z,6.80
2017-11-19T18:29:30.463Z,6.80
2017-11-19T18:32:00.603Z,6.90
2017-11-19T18:34:31.739Z,6.90
2017-11-19T18:37:10.383Z,6.80
2017-11-19T18:39:40.373Z,6.90
2017-11-19T18:42:21.256Z,6.80
2017-11-19T18:45:02.760Z,6.80
2017-11-19T18:47:45.350Z,6.80
2017-11-19T18:50:16.754Z,6.80
2017-11-19T18:52:50.049Z,6.90
2017-11-19T18:55:23.136Z,6.80
2017-11-19T18:57:57.822Z,6.80
2017-11-19T19:00:28.155Z,6.80
2017-11-19T19:03:02.301Z,6.80
2017-11-19T19:05:31.720Z,6.70
2017-11-19T19:08:06.452Z,6.60
2017-11-19T19:10:36.737Z,6.60
2017-11-19T19:13:06.256Z,6.60
2017-11-19T19:15:35.948Z,6.60
2017-11-19T19:18:06.308Z,6.50
2017-11-19T19:20:36.487Z,6.50
2017-11-19T19:23:07.926Z,6.50
2017-11-19T19:25:38.431Z,6.50
2017-11-19T19:28:07.708Z,6.50
2017-11-19T19:30:43.504Z,6.40
2017-11-19T19:33:27.642Z,6.50
2017-11-19T19:36:31.571Z,6.50
2017-11-19T19:39:02.644Z,6.40
2017-11-19T19:41:39.035Z,6.40
2017-11-19T19:44:25.550Z,6.50
2017-11-19T19:46:56.347Z,6.50
2017-11-19T19:49:26.782Z,6.50
2017-11-19T19:51:56.811Z,6.50
2017-11-19T19:54:26.294Z,6.50
2017-11-19T19:56:56.452Z,6.50
2017-11-19T19:59:26.814Z,6.60
2017-11-19T20:01:56.398Z,6.50
2017-11-19T20:04:27.111Z,6.60
2017-11-19T20:08:50.115Z,6.70
2017-11-19T20:11:26.353Z,6.70
2017-11-19T20:13:58.478Z,6.80
2017-11-19T20:16:28.046Z,6.70
2017-11-19T20:19:15.489Z,6.80
2017-11-19T20:22:06.544Z,6.80
2017-11-19T20:24:45.980Z,6.60
2017-11-19T20:27:18.255Z,6.70
2017-11-19T20:29:48.970Z,6.60
2017-11-19T20:32:19.045Z,6.80
2017-11-19T20:34:54.243Z,6.80
2017-11-19T20:37:24.452Z,6.80
2017-11-19T20:39:54.855Z,6.80
2017-11-19T20:42:23.964Z,6.80
2017-11-19T20:44:54.852Z,6.80
2017-11-19T20:47:31.854Z,6.80
2017-11-19T20:50:01.946Z,6.80
2017-11-19T20:52:35.984Z,6.90
2017-11-19T20:55:12.818Z,6.90
2017-11-19T20:57:45.234Z,7.00
2017-11-19T21:00:39.088Z,7.00
2017-11-19T21:03:12.875Z,6.90
2017-11-19T21:05:48.654Z,6.40
2017-11-19T21:08:28.332Z,6.30
2017-11-19T21:11:09.705Z,6.30
2017-11-19T21:13:41.497Z,6.30
2017-11-19T21:16:13.345Z,6.40
2017-11-19T21:18:42.500Z,6.30
2017-11-19T21:21:14.049Z,6.50
2017-11-19T21:23:44.511Z,6.40
2017-11-19T21:26:14.966Z,6.40
2017-11-19T21:28:46.039Z,6.30
2017-11-19T21:31:15.920Z,6.40
2017-11-19T21:33:50.243Z,6.40
2017-11-19T21:36:21.735Z,6.50
2017-11-19T21:38:53.513Z,6.40
2017-11-19T21:41:23.390Z,6.40
2017-11-19T21:43:52.819Z,6.40
2017-11-19T21:46:21.921Z,6.40
2017-11-19T21:48:51.294Z,6.40
2017-11-19T21:51:21.135Z,6.40
2017-11-19T21:53:53.829Z,6.40
2017-11-19T21:56:23.872Z,6.40
2017-11-19T21:59:01.476Z,6.40
2017-11-19T22:01:30.871Z,6.40
2017-11-19T22:04:00.810Z,6.40
2017-11-19T22:06:30.055Z,6.30
2017-11-19T22:09:02.178Z,6.40
2017-11-19T22:11:31.734Z,6.40
2017-11-19T22:14:08.100Z,6.30
2017-11-19T22:16:45.629Z,6.20
2017-11-19T22:19:15.536Z,6.20
2017-11-19T22:21:45.034Z,6.20
2017-11-19T22:24:16.754Z,6.30
2017-11-19T22:26:47.017Z,6.30
2017-11-19T22:29:16.455Z,6.30
2017-11-19T22:31:48.402Z,6.30
2017-11-19T22:34:18.371Z,6.20
2017-11-19T22:36:48.613Z,6.20
2017-11-19T22:39:20.404Z,6.10
2017-11-19T22:41:49.860Z,6.10
2017-11-19T22:44:20.437Z,5.90
2017-11-19T22:46:49.500Z,5.90
2017-11-19T22:49:19.506Z,6.00
2017-11-19T22:51:49.724Z,5.90
2017-11-19T22:54:19.104Z,5.90
2017-11-19T22:56:48.608Z,5.80
2017-11-19T22:59:17.841Z,5.80
2017-11-19T23:01:47.042Z,5.90
2017-11-19T23:04:18.141Z,5.90
2017-11-19T23:06:47.646Z,5.90
2017-11-19T23:09:16.893Z,5.80
2017-11-19T23:11:47.053Z,5.80
2017-11-19T23:14:16.556Z,5.80
2017-11-19T23:16:45.930Z,5.70
2017-11-19T23:19:15.528Z,5.70
2017-11-19T23:21:50.673Z,5.80
2017-11-19T23:24:27.341Z,5.80
2017-11-19T23:27:00.535Z,5.70
2017-11-19T23:29:31.473Z,5.70
2017-11-19T23:32:01.374Z,5.60
2017-11-19T23:34:30.975Z,5.60
2017-11-19T23:37:00.173Z,5.60
2017-11-19T23:39:29.581Z,5.60
2017-11-19T23:41:59.100Z,5.60
2017-11-19T23:44:29.333Z,5.60
2017-11-19T23:46:59.526Z,5.60
2017-11-19T23:49:28.815Z,5.50
2017-11-19T23:51:58.586Z,5.50
2017-11-19T23:54:29.846Z,5.60
2017-11-19T23:57:01.662Z,5.60
2017-11-19T23:59:31.634Z,5.50
